This is the latest recevied weather packets stored in our database for station/object 9W2CEW-1. If no packets are shown the sender has not sent any weather packets the latest 10 day(s).
| Time | Temp. | Humidity | Pressure | Rain* | Wind** | Luminosity | Snow |
|---|---|---|---|---|---|---|---|
| 1787835210 | 39.44° C | 39% | 1005.2 hPa | - | - | - | - |
| 1787834310 | 40° C | 38% | 1004.8 hPa | - | - | - | - |
| 1787833410 | 41.11° C | 36% | 1004.6 hPa | - | - | - | - |
| 1787832510 | 39.44° C | 39% | 1004.1 hPa | - | - | - | - |
| 1787831612 | 38.33° C | 40% | 1003.9 hPa | - | - | - | - |
| 1787830710 | 38.89° C | 40% | 1003.7 hPa | - | - | - | - |
| 1787829810 | 38.33° C | 40% | 1003.4 hPa | - | - | - | - |
| 1787828909 | 36.67° C | 45% | 1003.1 hPa | - | - | - | - |
| 1787828009 | 37.22° C | 41% | 1002.8 hPa | - | - | - | - |
| 1787827116 | 36.11° C | 44% | 1002.7 hPa | - | - | - | - |
| 1787826216 | 37.22° C | 41% | 1002.5 hPa | - | - | - | - |
| 1787825309 | 37.78° C | 40% | 1002.7 hPa | - | - | - | - |
| 1787824409 | 36.67° C | 42% | 1002.8 hPa | - | - | - | - |
| 1787823509 | 38.33° C | 39% | 1002.8 hPa | - | - | - | - |
| 1787822609 | 38.33° C | 39% | 1002.7 hPa | - | - | - | - |
| 1787821715 | 37.78° C | 40% | 1002.4 hPa | - | - | - | - |
| 1787820809 | 36.67° C | 43% | 1002.6 hPa | - | - | - | - |
| 1787819908 | 37.22° C | 41% | 1002.7 hPa | - | - | - | - |
| 1787819009 | 37.78° C | 42% | 1002.9 hPa | - | - | - | - |
| 1787818110 | 36.11° C | 44% | 1002.9 hPa | - | - | - | - |
| 1787817210 | 37.78° C | 41% | 1003.3 hPa | - | - | - | - |
| 1787816310 | 37.22° C | 42% | 1003.3 hPa | - | - | - | - |
| 1787815410 | 36.67° C | 42% | 1003.6 hPa | - | - | - | - |
| 1787814510 | 36.11° C | 42% | 1003.1 hPa | - | - | - | - |
| 1787813610 | 36.11° C | 42% | 1003.4 hPa | - | - | - | - |
* Rain since midnight (hover to see other rain measurements)
** Current wind speed in m/s (hover to see current wind gust speed)